Weather observations for the past three days for
Dumas, Moore County Airport
Imperial (Metric)
Date Time (cdt) Wind (mph) Vis. (mi.) Weather Sky Cond. Temperature (ºF) Relative Humidity Wind Chill (°F) Heat Index (°F) Pressure Precipitation (in)
Air Dwpt 6 hour altimeter (in) sea level (mb) 1 hr 3 hr 6 hr
Max. Min.
01 12:55 S 12 G 24 10.00 A Few Clouds FEW070 FEW090 93.2 55.4 91.2 67.6 28% 91 30.12 0.0
01 12:35 S 17 G 23 10.00 Partly Cloudy FEW070 SCT090 89.6 57.2 33% 88 30.13 0.0
01 12:15 SW 15 G 23 10.00 Fair CLR 89.6 57.2 33% 88 30.13 0.0
01 11:55 SW 14 G 22 10.00 Fair CLR 89.6 59 36% 89 30.13 0.0
01 11:35 SW 18 G 23 10.00 Fair CLR 87.8 59 38% 87 30.13 0.0
01 11:15 SW 20 G 26 10.00 Fair CLR 87.8 59 38% 87 30.12 0.0
01 10:55 SW 21 10.00 A Few Clouds and Breezy FEW090 86 59 40% 85 30.12 0.0
01 10:35 SW 22 10.00 Mostly Cloudy and Breezy BKN090 84.2 60.8 45% 84 30.12 0.0
01 10:15 SW 18 G 23 10.00 Mostly Cloudy BKN090 84.2 59 43% 84 30.12 0.0
01 09:55 SW 20 10.00 Mostly Cloudy BKN090 82.4 59 45% 82 30.12 0.0
01 09:35 SW 17 G 22 10.00 Overcast OVC090 80.6 59 48% 81 30.13 0.0
01 09:15 SW 16 10.00 Overcast OVC090 78.8 57.2 48% 80 30.13 0.0
01 08:55 S 15 10.00 Overcast OVC090 77 57.2 51% 79 30.13 0.0
01 08:35 SW 15 10.00 Mostly Cloudy BKN090 75.2 57.2 54% 78 30.13 0.0
01 08:15 S 12 10.00 Mostly Cloudy BKN090 73.4 57.2 57% 30.13 0.0
01 07:55 S 10 10.00 Partly Cloudy SCT090 71.6 57.2 61% 30.12 0.0
01 07:35 S 14 10.00 Partly Cloudy SCT090 71.6 55.4 57% 30.11 0.0
01 07:15 SW 9 10.00 Overcast OVC090 69.8 57.2 64% 30.12 0.0
01 06:55 S 7 10.00 Mostly Cloudy BKN090 68 57.2 72.9 66.7 69% 30.11 0.0
01 06:35 S 9 10.00 Partly Cloudy SCT090 68 57.2 69% 30.11 0.0
01 06:15 S 9 10.00 A Few Clouds FEW090 68 57.2 69% 30.11 0.0
01 05:55 S 8 10.00 Fair CLR 68 57.2 69% 30.11 0.0
01 05:35 S 9 10.00 Fair CLR 68 57.2 69% 30.11 0.0
01 05:15 S 8 10.00 A Few Clouds FEW095 68 55.4 64% 30.11 0.0
01 04:55 S 9 10.00 Partly Cloudy SCT095 69.8 57.2 64% 30.11 0.0
01 04:35 S 7 10.00 Overcast OVC085 69.8 57.2 64% 30.11 0.0
01 04:15 S 6 10.00 Mostly Cloudy BKN085 69.8 57.2 64% 30.11 0.0
01 03:55 S 8 10.00 A Few Clouds FEW085 69.8 55.4 60% 30.11 0.0
01 03:35 S 9 10.00 Fair CLR 69.8 57.2 64% 30.11 0.0
01 03:15 S 9 10.00 Fair CLR 68 57.2 69% 30.1 0.0
01 02:55 S 9 10.00 Fair CLR 69.8 57.2 64% 30.11 0.0
01 02:35 S 10 10.00 Fair CLR 69.8 57.2 64% 30.1 0.0
01 02:15 S 9 10.00 Fair CLR 69.8 57.2 64% 30.11 0.0
01 01:55 S 9 10.00 Fair CLR 71.6 57.2 61% 30.11 0.0
01 01:35 S 10 10.00 Fair CLR 71.6 57.2 61% 30.11 0.0
01 01:15 S 9 10.00 Fair CLR 73.4 57.2 57% 30.11 0.0
01 00:56 S 10 10.00 Fair CLR 71.6 57.2 61% 30.11 0.0
01 00:35 S 8 10.00 Fair CLR 73.4 55.4 53% 30.11 0.0
01 00:15 S 7 10.00 Fair CLR 73.4 55.4 53% 30.11 0.0
31 23:55 S 7 10.00 Fair CLR 75.2 55.4 50% 78 30.1 0.0
31 23:35 SE 9 10.00 Fair CLR 75.2 55.4 50% 78 30.1 0.0
31 23:15 S 10 10.00 Fair CLR 75.2 55.4 50% 78 30.1 0.0
31 22:55 SE 8 10.00 Fair CLR 75.2 53.6 47% 78 30.09 0.0
31 22:35 SE 9 10.00 Fair CLR 77 53.6 44% 78 30.08 0.0
31 22:15 SE 8 10.00 Fair CLR 75.2 53.6 47% 78 30.08 0.0
31 21:55 SE 9 10.00 Fair CLR 77 53.6 44% 78 30.07 0.0
31 21:35 S 9 10.00 Fair CLR 78.8 53.6 42% 79 30.05 0.0
31 21:15 S 10 10.00 Fair CLR 80.6 53.6 39% 80 30.04 0.0
31 20:55 S 9 10.00 Fair CLR 82.4 51.8 35% 81 30.03 0.0
31 20:35 S 10 10.00 Fair CLR 82.4 53.6 37% 81 30.02 0.0
31 20:15 S 9 10.00 Fair CLR 86 51.8 31% 84 30.02 0.0
31 19:55 S 13 10.00 Fair CLR 89.6 50 26% 87 30.01 0.0
31 19:35 S 12 10.00 Fair CLR 91.4 51.8 26% 89 30.02 0.0
31 19:15 S 15 10.00 Fair CLR 93.2 50 23% 90 30.02 0.0
31 18:35 S 18 G 24 10.00 Fair CLR 95 50 22% 92 30.01 0.0
31 18:15 SE 13 G 22 10.00 Fair CLR 95 50 22% 92 30.01 0.0
31 17:56 S 13 G 21 10.00 Fair CLR 96.8 50 20% 94 30.01 0.0
31 17:35 S 9 G 21 10.00 Fair CLR 96.8 50 20% 94 30.02 0.0
31 17:15 S 14 G 24 10.00 Fair CLR 96.8 50 20% 94 30.02 0.0
31 16:55 S 10 10.00 Fair CLR 96.8 51.8 22% 94 30.02 0.0
31 16:35 SE 10 G 20 10.00 Fair CLR 96.8 51.8 22% 94 30.02 0.0
31 16:15 S 10 G 18 10.00 Fair CLR 96.8 51.8 22% 94 30.03 0.0
31 15:55 S 14 G 23 10.00 Fair CLR 96.8 53.6 23% 95 30.04 0.0
31 15:35 S 8 G 16 10.00 Fair CLR 96.8 53.6 23% 95 30.05 0.0
31 15:15 S 12 G 25 10.00 Fair CLR 96.8 55.4 25% 95 30.06 0.0
31 14:55 S 14 G 21 10.00 Fair CLR 96.8 53.6 23% 95 30.06 0.0
31 14:35 S 15 G 24 10.00 Fair CLR 96.8 55.4 25% 95 30.07 0.0
31 14:15 S 14 G 23 10.00 Fair CLR 96.8 55.4 25% 95 30.07 0.0
31 13:55 S 17 G 22 10.00 Fair CLR 96.8 57.2 27% 96 30.08 0.0
31 13:36 S 10 10.00 Fair CLR 95 55.4 26% 93 30.08 0.0
31 13:15 SW 12 10.00 Fair CLR 95 55.4 26% 93 30.09 0.0
31 12:55 S 12 G 18 10.00 Fair CLR 93.2 55.4 93 67.8 28% 91 30.1 0.0
31 12:35 SW 10 10.00 Fair CLR 93.2 55.4 28% 91 30.1 0.0
31 12:15 S 15 G 20 10.00 Fair CLR 91.4 55.4 30% 90 30.1 0.0
31 11:55 S 14 10.00 Fair CLR 89.6 55.4 31% 88 30.11 0.0
31 11:35 SW 15 10.00 Fair CLR 89.6 57.2 33% 88 30.11 0.0
31 11:15 S 10 10.00 Fair CLR 84.2 57.2 40% 83 30.11 0.0
31 10:55 S 10 10.00 Fair CLR 82.4 57.2 42% 82 30.11 0.0
31 10:35 SE 6 10.00 Fair CLR 78.8 59 51% 80 30.11 0.0
31 10:15 SE 6 10.00 Fair CLR 77 59 54% 79 30.1 0.0
31 09:55 Vrbl 2 10.00 Fair CLR 75.2 59 57% 78 30.1 0.0
31 09:35 E 5 10.00 Fair CLR 75.2 59 57% 78 30.11 0.0
31 09:15 E 3 10.00 Fair CLR 73.4 59 61% 30.11 0.0
31 08:55 N 7 10.00 Fair CLR 73.4 57.2 57% 30.1 0.0
31 08:35 N 5 10.00 Fair CLR 71.6 57.2 61% 30.1 0.0
31 08:15 NW 7 10.00 Fair CLR 69.8 57.2 64% 30.08 0.0
31 07:55 NW 9 10.00 A Few Clouds FEW120 68 57.2 69% 30.07 0.0
31 07:35 NW 14 10.00 A Few Clouds FEW120 68 57.2 69% 30.06 0.0
31 07:15 NW 13 10.00 Fair CLR 68 55.4 64% 30.06 0.0
31 06:55 NW 3 10.00 Fair CLR 68 55.4 77.7 69.8 64% 30.07 0.0
31 06:35 NW 6 10.00 Fair CLR 69.8 55.4 60% 30.07 0.0
31 06:15 N 8 10.00 Fair CLR 73.4 53.6 50% 30.07 0.0
31 05:55 W 10 10.00 Fair CLR 75.2 53.6 47% 78 30.06 0.0
31 05:35 NW 8 10.00 A Few Clouds FEW120 71.6 53.6 53% 30.06 0.0
31 05:15 NW 7 10.00 A Few Clouds FEW120 73.4 53.6 50% 30.07 0.0
31 04:55 NW 7 10.00 Fair CLR 75.2 53.6 47% 78 30.06 0.0
31 04:35 SW 15 10.00 Fair CLR 75.2 53.6 47% 78 30.04 0.0
31 04:15 SW 14 10.00 Fair CLR 75.2 53.6 47% 78 30.03 0.0
31 03:55 S 13 10.00 Fair CLR 73.4 53.6 50% 30.02 0.0
31 03:35 S 12 10.00 Fair CLR 71.6 53.6 53% 30.03 0.0
31 03:16 S 10 10.00 Fair CLR 71.6 53.6 53% 30.02 0.0
31 02:55 S 9 10.00 Fair CLR 71.6 55.4 57% 30.03 0.0
31 02:35 S 10 10.00 Fair CLR 71.6 55.4 57% 30.03 0.0
31 02:15 S 10 10.00 Fair CLR 73.4 55.4 53% 30.03 0.0
31 01:55 S 12 10.00 Fair CLR 73.4 55.4 53% 30.03 0.0
31 01:35 S 12 10.00 Fair CLR 75.2 55.4 50% 78 30.02 0.0
31 01:15 S 12 10.00 Fair CLR 75.2 55.4 50% 78 30.02 0.0
31 00:55 S 13 10.00 Fair CLR 77 55.4 97.9 77.7 47% 79 30.02 0.0
31 00:35 S 13 10.00 Fair CLR 78.8 55.4 45% 79 30.01 0.0
31 00:15 S 13 10.00 Fair CLR 78.8 55.4 45% 79 30.01 0.0
30 23:55 S 13 10.00 Fair CLR 78.8 55.4 45% 79 30 0.0
30 23:36 S 13 10.00 Fair CLR 80.6 55.4 42% 81 30 0.0
30 23:15 S 14 10.00 Fair CLR 82.4 55.4 40% 82 29.99 0.0
30 22:56 S 13 10.00 Fair CLR 80.6 55.4 42% 81 29.99 0.0
30 22:35 S 13 10.00 Fair CLR 80.6 55.4 42% 81 29.99 0.0
30 22:15 S 12 10.00 Fair CLR 82.4 55.4 40% 82 29.98 0.0
30 21:55 S 13 10.00 Fair CLR 82.4 53.6 37% 81 29.97 0.0
30 21:35 S 12 10.00 Fair CLR 82.4 55.4 40% 82 29.96 0.0
30 21:16 S 12 10.00 Fair CLR 84.2 53.6 35% 83 29.96 0.0
30 20:56 S 13 10.00 Fair CLR 86 53.6 33% 84 29.95 0.0
30 20:35 S 14 10.00 Fair CLR 87.8 53.6 31% 86 29.94 0.0
30 20:15 S 13 10.00 Fair CLR 89.6 53.6 29% 87 29.94 0.0
30 19:56 S 15 G 20 10.00 Fair CLR 91.4 53.6 28% 89 29.93 0.0
30 19:35 S 15 10.00 Fair CLR 93.2 55.4 28% 91 29.93 0.0
30 19:16 S 16 10.00 Fair CLR 93.2 53.6 26% 91 29.93 0.0
30 18:56 S 17 G 23 10.00 A Few Clouds FEW120 95 53.6 103.3 80.6 25% 93 29.93 0.0
30 18:35 SE 17 G 22 10.00 Partly Cloudy SCT120 98.6 55.4 24% 97 29.93 0.0
30 18:16 S 14 G 23 10.00 Partly Cloudy SCT120 98.6 55.4 24% 97 29.93 0.0
30 17:55 SE 13 10.00 Partly Cloudy SCT120 98.6 55.4 24% 97 29.93 0.0
30 17:35 SE 8 10.00 A Few Clouds FEW110 95 60.8 32% 95 29.94 0.0
30 17:15 SE 12 10.00 Thunderstorm in Vicinity SCT120 95 59 30% 94 29.94 0.0
30 16:55 SE 21 G 38 10.00 Thunderstorm and Breezy CLR 87.8 60.8 40% 88 29.94 0.0
30 16:35 SE 18 G 33 7.00 Thunderstorm Light Rain CLR 84.2 62.6 48% 85 29.95 0.0
30 16:15 S 18 G 31 10.00 Fair CLR 93.2 59 32% 93 29.95 0.0
30 15:55 S 20 10.00 Partly Cloudy SCT100 SCT120 100.4 55.4 22% 99 29.95 0.0
30 15:35 S 18 G 24 10.00 Mostly Cloudy BKN100 100.4 55.4 22% 99 29.95 0.0
30 15:15 S 12 G 29 10.00 A Few Clouds FEW120 100.4 55.4 22% 99 29.96 0.0
30 14:55 S 9 G 22 10.00 Fair CLR 100.4 55.4 22% 99 29.97 0.0
30 14:35 SW 15 G 23 10.00 A Few Clouds FEW100 FEW120 102.2 55.4 21% 101 29.97 0.0
30 14:16 S 18 G 25 10.00 A Few Clouds FEW100 100.4 57.2 24% 100 29.98 0.0
30 13:55 SW 13 G 17 10.00 Fair CLR 100.4 53.6 21% 98 29.99 0.0
30 13:35 SW 9 G 18 10.00 Fair CLR 100.4 51.8 20% 98 29.99 0.0
30 13:15 S 9 G 20 10.00 Fair CLR 98.6 53.6 22% 96 30.01 0.0
30 12:55 SW 9 G 21 10.00 Fair CLR 98.6 53.6 98.4 70 22% 96 30.01 0.0
30 12:35 SW 13 G 24 10.00 Fair CLR 96.8 53.6 23% 95 30.02 0.0
30 12:15 SW 17 G 21 10.00 Fair CLR 96.8 55.4 25% 95 30.02 0.0
30 11:55 SW 15 G 22 10.00 Fair CLR 95 55.4 26% 93 30.03 0.0
30 11:35 SW 21 10.00 Fair and Breezy CLR 95 55.4 26% 93 30.03 0.0
30 11:15 SW 22 G 28 10.00 Fair and Breezy CLR 93.2 55.4 28% 91 30.03 0.0
30 10:55 SW 18 10.00 Fair CLR 91.4 57.2 32% 90 30.02 0.0
30 10:35 SW 21 G 29 10.00 Fair and Breezy CLR 89.6 55.4 31% 88 30.02 0.0
30 10:15 SW 20 G 28 10.00 Fair CLR 87.8 57.2 35% 87 30.03 0.0
30 09:55 SW 22 G 26 10.00 Fair and Breezy CLR 87.8 57.2 35% 87 30.03 0.0
30 09:35 SW 18 10.00 Fair CLR 84.2 57.2 40% 83 30.03 0.0
30 09:15 SW 22 G 25 10.00 Fair and Breezy CLR 84.2 57.2 40% 83 30.03 0.0
30 08:55 SW 16 10.00 Fair CLR 80.6 57.2 45% 81 30.03 0.0
30 08:35 S 12 10.00 Fair CLR 77 55.4 47% 79 30.04 0.0
30 08:15 S 12 10.00 Fair CLR 75.2 55.4 50% 78 30.04 0.0
30 07:55 S 8 10.00 Fair CLR 71.6 55.4 57% 30.04 0.0
30 07:35 S 9 10.00 Fair CLR 69.8 55.4 60% 30.04 0.0
30 07:15 S 7 10.00 Fair CLR 71.6 55.4 57% 30.04 0.0
30 06:55 S 9 10.00 Fair CLR 73.4 55.4 82.2 73.8 53% 30.03 0.0
30 06:35 S 12 10.00 Fair CLR 73.4 53.6 50% 30.02 0.0
30 06:15 SW 13 10.00 Fair CLR 75.2 53.6 47% 78 30.02 0.0
30 05:55 SW 13 10.00 Fair CLR 75.2 53.6 47% 78 30.02 0.0
30 05:35 SW 14 10.00 Fair CLR 75.2 53.6 47% 78 30.02 0.0
30 05:15 SW 12 10.00 Fair CLR 75.2 53.6 47% 78 30.02 0.0
30 04:55 SW 12 10.00 Fair CLR 75.2 53.6 47% 78 30.02 0.0
30 04:35 SW 12 10.00 Fair CLR 75.2 53.6 47% 78 30.02 0.0
30 04:15 SW 13 10.00 Fair CLR 77 53.6 44% 78 30.02 0.0
30 03:55 SW 14 10.00 Fair CLR 77 53.6 44% 78 30.01 0.0
30 03:35 SW 16 10.00 Fair CLR 78.8 53.6 42% 79 30.01 0.0
30 03:15 SW 15 10.00 Fair CLR 77 53.6 44% 78 30.02 0.0
30 02:55 S 14 10.00 Fair CLR 77 53.6 44% 78 30.02 0.0
30 02:15 SW 15 10.00 Fair CLR 78.8 53.6 42% 79 30.03 0.0
30 01:55 SW 15 10.00 Fair CLR 80.6 53.6 39% 80 30.03 0.0
30 01:35 S 16 10.00 Fair CLR 80.6 53.6 39% 80 30.03 0.0
30 01:15 S 16 G 22 10.00 Fair CLR 82.4 53.6 37% 81 30.03 0.0
30 00:55 S 16 10.00 Fair CLR 82.4 53.6 98.4 82 37% 81 30.03 0.0
30 00:35 S 16 10.00 Fair CLR 82.4 53.6 37% 81 30.03 0.0
30 00:15 S 17 10.00 Fair CLR 82.4 53.6 37% 81 30.03 0.0
29 23:55 S 16 10.00 Fair CLR 84.2 53.6 35% 83 30.02 0.0
29 23:35 S 16 G 23 10.00 Fair CLR 84.2 53.6 35% 83 30.02 0.0
29 23:15 S 17 10.00 Fair CLR 84.2 53.6 35% 83 30.02 0.0
29 22:55 S 18 10.00 Fair CLR 86 53.6 33% 84 30.01 0.0
29 22:35 S 18 G 24 10.00 Fair CLR 86 53.6 33% 84 30.01 0.0
29 22:15 S 18 G 24 10.00 Fair CLR 86 53.6 33% 84 30 0.0
29 21:55 S 17 G 23 10.00 Fair CLR 86 53.6 33% 84 29.99 0.0
29 21:35 S 17 G 24 10.00 Fair CLR 87.8 53.6 31% 86 29.98 0.0
29 21:15 S 17 G 25 10.00 Fair CLR 87.8 53.6 31% 86 29.97 0.0
29 20:55 S 20 G 24 10.00 Fair CLR 89.6 53.6 29% 87 29.96 0.0
29 20:35 S 18 G 24 10.00 Fair CLR 89.6 53.6 29% 87 29.95 0.0
29 20:15 S 21 10.00 Fair and Breezy CLR 91.4 53.6 28% 89 29.95 0.0
29 19:55 S 20 G 30 10.00 Fair CLR 93.2 53.6 26% 91 29.94 0.0
29 19:35 S 21 G 30 10.00 Fair and Breezy CLR 95 53.6 25% 93 29.94 0.0
29 19:15 S 26 G 36 10.00 Fair and Windy CLR 96.8 53.6 23% 95 29.94 0.0
29 18:55 S 26 G 31 10.00 Fair and Windy CLR 98.6 53.6 104 96.4 22% 96 29.94 0.0
29 18:35 S 22 G 30 10.00 Fair and Breezy CLR 98.6 53.6 22% 96 29.94 0.0
29 18:15 S 23 G 32 10.00 Fair and Breezy CLR 96.8 53.6 23% 95 29.94 0.0
29 17:55 S 22 G 30 10.00 Fair and Breezy CLR 98.6 55.4 24% 97 29.94 0.0
29 17:35 S 24 G 30 10.00 Fair and Breezy CLR 100.4 55.4 22% 99 29.94 0.0
29 17:15 S 26 G 31 10.00 A Few Clouds and Windy FEW120 102.2 55.4 21% 101 29.95 0.0
29 16:55 S 21 G 31 10.00 Fair and Breezy CLR 98.6 55.4 24% 97 29.96 0.0
29 16:35 S 23 G 30 10.00 Fair and Breezy CLR 104 55.4 20% 103 29.96 0.0
29 16:15 S 22 G 28 10.00 Fair and Breezy CLR 104 53.6 19% 102 29.97 0.0
29 15:55 SW 17 G 26 10.00 Fair CLR 102.2 51.8 18% 100 29.99 0.0
29 15:35 S 23 G 28 10.00 Fair and Breezy CLR 102.2 53.6 20% 100 29.99 0.0
29 15:15 S 17 G 31 10.00 Fair CLR 102.2 53.6 20% 100 30 0.0
29 14:55 S 17 G 29 10.00 Fair CLR 102.2 53.6 20% 100 30.01 0.0
29 14:35 SW 22 G 28 10.00 Fair and Breezy CLR 100.4 53.6 21% 98 30.02 0.0
29 14:15 SW 20 G 29 10.00 Fair CLR 102.2 55.4 21% 101 30.03 0.0
29 13:55 SW 20 G 28 10.00 Fair CLR 100.4 53.6 21% 98 30.03 0.0
29 13:35 S 21 G 28 10.00 Fair and Breezy CLR 100.4 53.6 21% 98 30.05 0.0
29 13:15 S 18 G 28 10.00 Fair CLR 98.6 53.6 22% 96 30.06 0.0
Date Time (cdt) Wind (mph) Vis. (mi.) Weather Sky Cond. Air Dwpt Max. Min. Relative Humidity Wind Chill (°F) Heat Index (°F) altimeter (in) sea level (mb) 1 hr 3 hr 6 hr
6 hour
Temperature (ºF) Pressure Precipitation (in)